createdAt,value
2018-10-11T00:01:32.913Z,962.75
2018-10-11T00:03:59.276Z,962.75
2018-10-11T00:06:25.659Z,962.74
2018-10-11T00:08:52.028Z,962.76
2018-10-11T00:11:18.396Z,962.70
2018-10-11T00:13:44.729Z,962.75
2018-10-11T00:16:11.047Z,962.76
2018-10-11T00:18:37.456Z,962.70
2018-10-11T00:21:03.798Z,962.65
2018-10-11T00:23:30.147Z,962.69
2018-10-11T00:25:56.501Z,962.64
2018-10-11T00:28:22.851Z,962.64
2018-10-11T00:30:49.329Z,962.63
2018-10-11T00:33:15.580Z,962.56
2018-10-11T00:35:41.915Z,962.63
2018-10-11T00:38:08.274Z,962.58
2018-10-11T00:40:34.622Z,962.61
2018-10-11T00:43:00.984Z,962.53
2018-10-11T00:45:27.308Z,962.59
2018-10-11T00:47:53.636Z,962.57
2018-10-11T00:50:19.984Z,962.51
2018-10-11T00:52:46.306Z,962.50
2018-10-11T00:55:12.676Z,962.54
2018-10-11T00:57:39.000Z,962.60
2018-10-11T01:00:05.346Z,962.56
2018-10-11T01:02:31.718Z,962.60
2018-10-11T01:04:58.064Z,962.57
2018-10-11T01:07:24.420Z,962.60
2018-10-11T01:09:50.792Z,962.62
2018-10-11T01:12:17.095Z,962.60
2018-10-11T01:14:43.475Z,962.64
2018-10-11T01:17:09.806Z,962.64
2018-10-11T01:19:36.124Z,962.57
2018-10-11T01:22:02.483Z,962.70
2018-10-11T01:24:28.832Z,962.65
2018-10-11T01:26:55.194Z,962.62
2018-10-11T01:29:21.515Z,962.57
2018-10-11T01:31:47.836Z,962.66
2018-10-11T01:34:14.205Z,962.59
2018-10-11T01:36:40.556Z,962.56
2018-10-11T01:39:06.926Z,962.52
2018-10-11T01:41:33.253Z,962.49
2018-10-11T01:43:59.619Z,962.48
2018-10-11T01:46:26.014Z,962.56
2018-10-11T01:48:52.336Z,962.56
2018-10-11T01:51:18.702Z,962.59
2018-10-11T01:53:45.095Z,962.61
2018-10-11T01:56:11.417Z,962.58
2018-10-11T01:58:37.776Z,962.62
2018-10-11T02:01:04.139Z,962.64
2018-10-11T02:03:30.464Z,962.65
2018-10-11T02:05:56.805Z,962.68
2018-10-11T02:08:23.252Z,962.68
2018-10-11T02:10:49.575Z,962.66
2018-10-11T02:13:15.926Z,962.68
2018-10-11T02:15:42.315Z,962.78
2018-10-11T02:18:08.641Z,962.67
2018-10-11T02:20:34.960Z,962.65
2018-10-11T02:23:01.319Z,962.74
2018-10-11T02:25:27.693Z,962.66
2018-10-11T02:27:54.037Z,962.77
2018-10-11T02:30:20.390Z,962.75
2018-10-11T02:32:46.713Z,962.71
2018-10-11T02:35:13.042Z,962.75
2018-10-11T02:37:39.385Z,962.81
2018-10-11T02:40:05.730Z,962.75
2018-10-11T02:42:32.047Z,962.76
2018-10-11T02:44:58.396Z,962.67
2018-10-11T02:47:24.716Z,962.61
2018-10-11T02:49:51.066Z,962.54
2018-10-11T02:52:17.448Z,962.55
2018-10-11T02:54:43.801Z,962.59
2018-10-11T02:57:10.152Z,962.54
2018-10-11T02:59:36.502Z,962.53
2018-10-11T03:02:02.828Z,962.58
2018-10-11T03:04:29.236Z,962.54
2018-10-11T03:06:55.556Z,962.59
2018-10-11T03:09:21.910Z,962.57
2018-10-11T03:11:48.289Z,962.49
2018-10-11T03:14:14.611Z,962.52
2018-10-11T03:16:40.956Z,962.48
2018-10-11T03:19:07.283Z,962.49
2018-10-11T03:21:33.620Z,962.51
2018-10-11T03:24:00.007Z,962.51
2018-10-11T03:26:26.362Z,962.47
2018-10-11T03:28:52.720Z,962.41
2018-10-11T03:31:19.046Z,962.48
2018-10-11T03:33:45.390Z,962.52
2018-10-11T03:36:11.762Z,962.53
2018-10-11T03:38:38.078Z,962.56
2018-10-11T03:41:04.420Z,962.45
2018-10-11T03:43:30.744Z,962.52
2018-10-11T03:45:57.090Z,962.50
2018-10-11T03:48:23.453Z,962.56
2018-10-11T03:50:49.767Z,962.58
2018-10-11T03:53:16.110Z,962.44
2018-10-11T03:55:42.499Z,962.39
2018-10-11T03:58:08.836Z,962.41
2018-10-11T04:00:35.150Z,962.43
2018-10-11T04:03:01.499Z,962.35
2018-10-11T04:05:27.815Z,962.35
2018-10-11T04:07:54.253Z,962.35
2018-10-11T04:10:20.611Z,962.31
2018-10-11T04:12:46.936Z,962.30
2018-10-11T04:15:13.264Z,962.36
2018-10-11T04:17:39.605Z,962.38
2018-10-11T04:20:05.968Z,962.33
2018-10-11T04:22:32.291Z,962.36
2018-10-11T04:24:58.630Z,962.50
2018-10-11T04:27:24.999Z,962.45
2018-10-11T04:29:51.356Z,962.36
2018-10-11T04:32:17.715Z,962.37
2018-10-11T04:34:44.043Z,962.38
2018-10-11T04:37:10.382Z,962.36
2018-10-11T04:39:36.704Z,962.48
2018-10-11T04:42:03.047Z,962.40
2018-10-11T04:44:29.416Z,962.45
2018-10-11T04:46:55.776Z,962.39
2018-10-11T04:49:28.232Z,962.40
2018-10-11T04:51:54.541Z,962.42
2018-10-11T04:54:20.885Z,962.46
2018-10-11T04:56:47.280Z,962.45
2018-10-11T04:59:13.608Z,962.50
2018-10-11T05:01:39.933Z,962.42
2018-10-11T05:04:06.291Z,962.45
2018-10-11T05:06:32.633Z,962.44
2018-10-11T05:08:58.982Z,962.48
2018-10-11T05:11:25.303Z,962.46
2018-10-11T05:13:51.658Z,962.53
2018-10-11T05:16:18.040Z,962.49
2018-10-11T05:18:44.380Z,962.41
2018-10-11T05:21:10.731Z,962.46
2018-10-11T05:23:37.131Z,962.47
2018-10-11T05:26:03.511Z,962.60
2018-10-11T05:28:29.819Z,962.60
2018-10-11T05:30:56.179Z,962.63
2018-10-11T05:33:22.528Z,962.61
2018-10-11T05:35:48.872Z,962.60
2018-10-11T05:38:15.223Z,962.66
2018-10-11T05:40:41.539Z,962.68
2018-10-11T05:43:07.927Z,962.72
2018-10-11T05:45:34.276Z,962.69
2018-10-11T05:48:00.596Z,962.62
2018-10-11T05:50:26.938Z,962.67
2018-10-11T05:52:53.264Z,962.71
2018-10-11T05:55:19.629Z,962.72
2018-10-11T05:57:45.951Z,962.71
2018-10-11T06:00:12.270Z,962.70
2018-10-11T06:02:38.620Z,962.65
2018-10-11T06:05:04.976Z,962.66
2018-10-11T06:07:31.363Z,962.68
2018-10-11T06:09:57.686Z,962.71
2018-10-11T06:12:24.016Z,962.70
2018-10-11T06:14:50.408Z,962.68
2018-10-11T06:17:16.729Z,962.72
2018-10-11T06:19:43.083Z,962.78
2018-10-11T06:22:09.510Z,962.73
2018-10-11T06:24:35.890Z,962.75
2018-10-11T06:27:02.177Z,962.77
2018-10-11T06:29:28.497Z,962.82
2018-10-11T06:31:54.828Z,962.76
2018-10-11T06:34:21.220Z,962.88
2018-10-11T06:36:47.541Z,962.88
2018-10-11T06:39:13.871Z,962.91
2018-10-11T06:41:40.413Z,962.94
2018-10-11T06:44:06.747Z,962.87
2018-10-11T06:46:33.084Z,962.93
2018-10-11T06:48:59.662Z,962.89
2018-10-11T06:51:26.045Z,962.88
2018-10-11T06:53:52.358Z,962.85
2018-10-11T06:56:18.713Z,962.86
2018-10-11T06:58:45.062Z,962.84
2018-10-11T07:01:11.446Z,962.84
2018-10-11T07:03:37.791Z,962.82
2018-10-11T07:06:04.112Z,962.89
2018-10-11T07:08:30.446Z,962.87
2018-10-11T07:10:56.764Z,962.87
2018-10-11T07:13:23.150Z,962.93
2018-10-11T07:15:49.499Z,962.93
2018-10-11T07:18:15.850Z,963.01
2018-10-11T07:20:42.240Z,962.99
2018-10-11T07:23:08.560Z,963.05
2018-10-11T07:25:34.902Z,963.04
2018-10-11T07:28:01.228Z,963.07
2018-10-11T07:30:27.558Z,963.14
2018-10-11T07:32:53.915Z,963.08
2018-10-11T07:35:20.307Z,963.07
2018-10-11T07:37:46.534Z,963.06
2018-10-11T07:40:12.901Z,963.06
2018-10-11T07:42:39.179Z,963.04
2018-10-11T07:45:05.579Z,963.07
2018-10-11T07:47:31.906Z,963.03
2018-10-11T07:49:58.211Z,962.96
2018-10-11T07:52:24.512Z,962.93
2018-10-11T07:54:50.814Z,962.87
2018-10-11T07:57:17.156Z,962.93
2018-10-11T07:59:43.457Z,962.92
2018-10-11T08:02:10.375Z,962.96
2018-10-11T08:04:36.703Z,962.96
2018-10-11T08:07:03.068Z,962.85
2018-10-11T08:09:29.342Z,962.90
2018-10-11T08:11:55.843Z,962.89
2018-10-11T08:14:21.971Z,962.90
2018-10-11T08:16:48.416Z,962.86
2018-10-11T08:19:14.980Z,962.88
2018-10-11T08:21:41.088Z,962.94
2018-10-11T08:24:07.395Z,962.96
2018-10-11T08:26:33.703Z,962.95
2018-10-11T08:29:00.055Z,962.90
2018-10-11T08:31:26.387Z,962.91
2018-10-11T08:33:52.707Z,962.90
2018-10-11T08:36:19.012Z,962.89
2018-10-11T08:38:45.344Z,962.90
2018-10-11T08:41:11.700Z,962.89
2018-10-11T08:43:38.056Z,962.91
2018-10-11T08:46:04.331Z,962.92
2018-10-11T08:48:30.645Z,962.98
2018-10-11T08:50:57.028Z,962.93
2018-10-11T08:53:23.324Z,963.08
2018-10-11T08:55:49.672Z,963.06
2018-10-11T08:58:15.920Z,963.04
2018-10-11T09:00:42.437Z,963.01
2018-10-11T09:03:08.734Z,962.99
2018-10-11T09:05:35.062Z,962.97
2018-10-11T09:08:01.425Z,963.04
2018-10-11T09:10:38.107Z,963.05
2018-10-11T09:12:54.058Z,963.04
2018-10-11T09:15:20.426Z,963.01
2018-10-11T09:17:46.727Z,963.07
2018-10-11T09:20:13.032Z,963.03
2018-10-11T09:22:39.357Z,962.99
2018-10-11T09:25:05.659Z,962.99
2018-10-11T09:27:31.969Z,962.99
2018-10-11T09:29:58.302Z,963.00
2018-10-11T09:32:24.604Z,962.93
2018-10-11T09:34:50.933Z,962.89
2018-10-11T09:37:17.241Z,962.87
2018-10-11T09:39:43.540Z,962.78
2018-10-11T09:42:09.879Z,962.76
2018-10-11T09:44:36.224Z,962.66
2018-10-11T09:47:02.551Z,962.71
2018-10-11T09:49:28.857Z,962.69
2018-10-11T09:51:55.160Z,962.72
2018-10-11T09:54:21.576Z,962.67
2018-10-11T09:56:47.831Z,962.61
2018-10-11T09:59:14.176Z,962.54
2018-10-11T10:01:40.519Z,962.44
2018-10-11T10:04:06.908Z,962.46
2018-10-11T10:06:33.242Z,962.34
2018-10-11T10:08:59.571Z,962.32
2018-10-11T10:11:25.878Z,962.32
2018-10-11T10:13:52.177Z,962.29
2018-10-11T10:16:18.520Z,962.24
2018-10-11T10:18:44.943Z,962.23
2018-10-11T10:21:11.352Z,962.29
2018-10-11T10:23:37.579Z,962.22
2018-10-11T10:26:03.889Z,962.17
2018-10-11T10:28:30.263Z,962.16
2018-10-11T10:30:56.595Z,962.09
2018-10-11T10:33:22.905Z,962.03
2018-10-11T10:35:49.221Z,961.96
2018-10-11T10:38:15.529Z,961.94
2018-10-11T10:40:42.230Z,961.95
2018-10-11T10:43:08.511Z,961.93
2018-10-11T10:45:34.838Z,961.89
2018-10-11T10:48:01.198Z,961.88
2018-10-11T10:50:27.505Z,961.92
2018-10-11T10:52:53.841Z,961.89
2018-10-11T10:55:20.152Z,961.88
2018-10-11T10:57:46.473Z,961.89
2018-10-11T11:00:12.833Z,961.83
2018-10-11T11:02:39.206Z,961.80
2018-10-11T11:05:05.520Z,961.84
2018-10-11T11:07:32.367Z,961.81
2018-10-11T11:09:58.644Z,961.74
2018-10-11T11:12:25.353Z,961.69
2018-10-11T11:14:51.681Z,961.73
2018-10-11T11:17:18.015Z,961.76
2018-10-11T11:19:44.440Z,961.72
2018-10-11T11:22:10.787Z,961.63
2018-10-11T11:24:37.176Z,961.61
2018-10-11T11:27:03.484Z,961.53
2018-10-11T11:29:29.802Z,961.54
2018-10-11T11:31:56.142Z,961.55
2018-10-11T11:34:22.480Z,961.47
2018-10-11T11:36:48.798Z,961.51
2018-10-11T11:39:15.149Z,961.43
2018-10-11T11:41:41.475Z,961.51
2018-10-11T11:44:07.891Z,961.45
2018-10-11T11:46:34.177Z,961.43
2018-10-11T11:49:00.492Z,961.31
2018-10-11T11:51:26.855Z,961.30
2018-10-11T11:53:53.225Z,961.31
2018-10-11T11:56:19.562Z,961.34
2018-10-11T11:58:45.898Z,961.21
2018-10-11T12:01:12.223Z,961.23
2018-10-11T12:03:38.551Z,961.23
2018-10-11T12:06:04.875Z,961.19
2018-10-11T12:08:31.269Z,961.15
2018-10-11T12:10:57.698Z,961.18
2018-10-11T12:13:23.893Z,961.13
2018-10-11T12:15:50.207Z,961.08
2018-10-11T12:18:16.713Z,961.14
2018-10-11T12:20:43.067Z,961.07
2018-10-11T12:23:09.382Z,961.08
2018-10-11T12:25:35.715Z,961.08
2018-10-11T12:28:02.075Z,961.10
2018-10-11T12:30:28.385Z,961.02
2018-10-11T12:32:54.750Z,961.07
2018-10-11T12:35:21.078Z,961.04
2018-10-11T12:37:47.416Z,961.08
2018-10-11T12:40:13.725Z,961.08
2018-10-11T12:42:40.210Z,961.04
2018-10-11T12:45:06.802Z,961.10
2018-10-11T12:47:33.153Z,961.11
2018-10-11T12:49:59.515Z,961.10
2018-10-11T12:52:25.797Z,961.10
2018-10-11T12:54:52.183Z,961.14
2018-10-11T12:57:20.368Z,961.07
2018-10-11T12:59:44.824Z,961.07
2018-10-11T13:02:11.185Z,961.06
2018-10-11T13:04:37.509Z,961.01
2018-10-11T13:07:03.829Z,960.91
2018-10-11T13:09:30.256Z,960.96
2018-10-11T13:11:56.507Z,960.98
2018-10-11T13:14:22.842Z,960.93
2018-10-11T13:16:49.359Z,960.96
2018-10-11T13:19:15.662Z,960.98
2018-10-11T13:21:42.013Z,960.94
2018-10-11T13:24:08.352Z,960.85
2018-10-11T13:26:34.686Z,960.95
2018-10-11T13:29:01.045Z,960.83
2018-10-11T13:31:27.973Z,960.84
2018-10-11T13:33:54.345Z,960.82
2018-10-11T13:36:20.576Z,960.75
2018-10-11T13:38:46.966Z,960.77
2018-10-11T13:43:40.050Z,960.67
2018-10-11T13:46:06.378Z,960.72
2018-10-11T13:48:32.685Z,960.75
2018-10-11T13:50:59.037Z,960.75
2018-10-11T13:53:25.342Z,960.74
2018-10-11T13:55:54.893Z,960.85
2018-10-11T13:58:17.971Z,960.84
2018-10-11T14:00:44.298Z,960.74
2018-10-11T14:03:10.646Z,960.82
2018-10-11T14:05:36.964Z,960.83
2018-10-11T14:08:03.297Z,960.84
2018-10-11T14:10:29.714Z,960.84
2018-10-11T14:13:11.067Z,960.90
2018-10-11T14:15:30.405Z,960.90
2018-10-11T14:17:58.680Z,960.89
2018-10-11T14:20:23.044Z,960.91
2018-10-11T14:22:49.643Z,960.93
2018-10-11T14:25:15.954Z,960.94
2018-10-11T14:27:42.319Z,960.98
2018-10-11T14:30:08.654Z,960.93
2018-10-11T14:32:34.974Z,961.02
2018-10-11T14:35:01.372Z,960.94
2018-10-11T14:37:27.677Z,961.00
2018-10-11T14:39:54.017Z,960.99
2018-10-11T14:42:20.346Z,961.00
2018-10-11T14:44:46.679Z,960.95
2018-10-11T14:47:13.011Z,961.05
2018-10-11T14:49:39.351Z,961.08
2018-10-11T14:52:05.675Z,961.01
2018-10-11T14:54:31.997Z,961.08
2018-10-11T14:56:58.353Z,961.13
2018-10-11T14:59:24.673Z,961.14
2018-10-11T15:01:50.974Z,961.16
2018-10-11T15:04:17.313Z,961.18
2018-10-11T15:06:43.638Z,961.17
2018-10-11T15:09:09.993Z,961.10
2018-10-11T15:11:36.471Z,961.16
2018-10-11T15:14:02.648Z,961.12
2018-10-11T15:16:28.987Z,961.19
2018-10-11T15:18:55.289Z,961.20
2018-10-11T15:21:21.657Z,961.16
2018-10-11T15:23:48.016Z,961.25
2018-10-11T15:26:14.320Z,961.24
2018-10-11T15:28:40.736Z,961.26
2018-10-11T15:31:07.059Z,961.21
2018-10-11T15:33:33.407Z,961.26
2018-10-11T15:35:59.742Z,961.26
2018-10-11T15:38:26.570Z,961.24
2018-10-11T15:40:52.898Z,961.28
2018-10-11T15:43:19.235Z,961.27
2018-10-11T15:45:45.870Z,961.40
2018-10-11T15:48:12.183Z,961.38
2018-10-11T15:50:38.511Z,961.48
2018-10-11T15:53:05.059Z,961.46
2018-10-11T15:55:31.385Z,961.49
2018-10-11T15:57:57.726Z,961.56
2018-10-11T16:00:24.068Z,961.58
2018-10-11T16:02:50.378Z,961.58
2018-10-11T16:05:16.791Z,961.53
2018-10-11T16:07:43.120Z,961.60
2018-10-11T16:10:09.429Z,961.64
2018-10-11T16:12:35.801Z,961.69
2018-10-11T16:15:02.139Z,961.69
2018-10-11T16:17:28.465Z,961.76
2018-10-11T16:19:54.784Z,961.80
2018-10-11T16:22:21.119Z,961.77
2018-10-11T16:24:47.495Z,961.77
2018-10-11T16:27:13.795Z,961.88
2018-10-11T16:29:40.118Z,961.96
2018-10-11T16:32:06.545Z,961.98
2018-10-11T16:34:32.778Z,961.97
2018-10-11T16:36:59.114Z,962.05
2018-10-11T16:39:25.453Z,962.06
2018-10-11T16:41:51.761Z,962.09
2018-10-11T16:44:18.113Z,962.07
2018-10-11T16:46:44.447Z,962.15
2018-10-11T16:49:10.753Z,962.22
2018-10-11T16:51:37.118Z,962.23
2018-10-11T16:54:03.443Z,962.21
2018-10-11T16:56:29.752Z,962.25
2018-10-11T16:58:56.394Z,962.25
2018-10-11T17:01:22.855Z,962.26
2018-10-11T17:03:49.209Z,962.22
2018-10-11T17:06:24.498Z,962.18
2018-10-11T17:08:56.305Z,962.25
2018-10-11T17:11:20.806Z,962.21
2018-10-11T17:13:48.838Z,962.25
2018-10-11T17:16:15.173Z,962.29
2018-10-11T17:18:41.544Z,962.24
2018-10-11T17:21:07.877Z,962.18
2018-10-11T17:23:34.201Z,962.25
2018-10-11T17:26:00.520Z,962.24
2018-10-11T17:28:26.862Z,962.29
2018-10-11T17:30:53.226Z,962.33
2018-10-11T17:33:22.214Z,962.37
2018-10-11T17:35:46.471Z,962.35
2018-10-11T17:38:12.791Z,962.36
2018-10-11T17:40:39.127Z,962.44
2018-10-11T17:43:05.519Z,962.48
2018-10-11T17:45:31.848Z,962.45
2018-10-11T17:47:58.174Z,962.44
2018-10-11T17:50:24.530Z,962.44
2018-10-11T17:52:50.826Z,962.45
2018-10-11T17:55:17.366Z,962.51
2018-10-11T17:57:43.680Z,962.52
2018-10-11T18:00:10.006Z,962.49
2018-10-11T18:02:36.391Z,962.50
2018-10-11T18:05:02.715Z,962.48
2018-10-11T18:07:29.143Z,962.56
2018-10-11T18:09:55.508Z,962.62
2018-10-11T18:12:21.762Z,962.63
2018-10-11T18:14:48.098Z,962.62
2018-10-11T18:17:14.413Z,962.62
2018-10-11T18:19:40.775Z,962.67
2018-10-11T18:22:07.114Z,962.74
2018-10-11T18:24:33.411Z,962.68
2018-10-11T18:26:59.759Z,962.72
2018-10-11T18:29:26.063Z,962.75
2018-10-11T18:31:52.371Z,962.72
2018-10-11T18:34:18.676Z,962.79
2018-10-11T18:36:44.981Z,962.74
2018-10-11T18:39:11.346Z,962.82
2018-10-11T18:41:37.654Z,962.83
2018-10-11T18:44:03.961Z,962.88
2018-10-11T18:46:30.305Z,962.82
2018-10-11T18:48:56.668Z,962.84
2018-10-11T18:51:22.936Z,962.88
2018-10-11T18:53:49.275Z,962.94
2018-10-11T18:56:15.611Z,962.93
2018-10-11T18:58:41.941Z,962.86
2018-10-11T19:01:08.291Z,962.85
2018-10-11T19:03:34.622Z,962.85
2018-10-11T19:06:00.958Z,962.92
2018-10-11T19:08:27.316Z,962.87
2018-10-11T19:10:53.631Z,962.87
2018-10-11T19:13:19.953Z,962.84
2018-10-11T19:15:46.450Z,962.89
2018-10-11T19:18:12.759Z,962.91
2018-10-11T19:20:39.122Z,962.85
2018-10-11T19:23:05.379Z,962.80
2018-10-11T19:25:31.686Z,962.84
2018-10-11T19:27:58.027Z,962.83
2018-10-11T19:30:24.352Z,962.89
2018-10-11T19:32:51.014Z,962.95
2018-10-11T19:35:17.353Z,962.89
2018-10-11T19:37:43.683Z,962.91
2018-10-11T19:40:10.005Z,962.95
2018-10-11T19:42:36.365Z,962.95
2018-10-11T19:45:02.700Z,962.93
2018-10-11T19:47:29.062Z,962.98
2018-10-11T19:49:55.411Z,963.00
2018-10-11T19:52:21.713Z,963.01
2018-10-11T19:54:48.029Z,963.00
2018-10-11T19:57:14.361Z,963.07
2018-10-11T19:59:40.696Z,963.00
2018-10-11T20:02:07.024Z,963.06
2018-10-11T20:04:33.329Z,963.06
2018-10-11T20:06:59.645Z,963.04
2018-10-11T20:09:25.991Z,963.01
2018-10-11T20:11:52.341Z,963.06
2018-10-11T20:14:18.653Z,963.09
2018-10-11T20:16:44.976Z,963.06
2018-10-11T20:19:11.682Z,963.07
2018-10-11T20:21:38.002Z,963.10
2018-10-11T20:24:04.344Z,963.03
2018-10-11T20:26:30.671Z,963.10
2018-10-11T20:28:57.003Z,963.09
2018-10-11T20:31:23.364Z,963.11
2018-10-11T20:33:49.695Z,963.09
2018-10-11T20:36:16.025Z,963.13
2018-10-11T20:38:42.340Z,963.09
2018-10-11T20:41:08.672Z,963.09
2018-10-11T20:43:35.092Z,963.12
2018-10-11T20:46:01.386Z,963.11
2018-10-11T20:48:27.718Z,963.03
2018-10-11T20:50:54.037Z,963.07
2018-10-11T20:53:20.352Z,962.98
2018-10-11T20:55:46.725Z,962.97
2018-10-11T20:58:13.060Z,963.01
2018-10-11T21:00:39.380Z,963.05
2018-10-11T21:03:05.694Z,963.00
2018-10-11T21:05:32.018Z,963.10
2018-10-11T21:07:58.376Z,963.03
2018-10-11T21:10:24.688Z,963.09
2018-10-11T21:12:51.030Z,963.11
2018-10-11T21:15:17.362Z,963.09
2018-10-11T21:17:45.379Z,963.16
2018-10-11T21:20:10.154Z,963.15
2018-10-11T21:22:36.391Z,963.14
2018-10-11T21:25:02.693Z,963.16
2018-10-11T21:27:29.018Z,963.16
2018-10-11T21:29:55.344Z,963.18
2018-10-11T21:32:21.705Z,963.16
2018-10-11T21:34:48.043Z,963.10
2018-10-11T21:37:14.350Z,963.09
2018-10-11T21:39:40.653Z,963.04
2018-10-11T21:42:06.964Z,963.08
2018-10-11T21:44:33.325Z,963.10
2018-10-11T21:46:59.658Z,963.11
2018-10-11T21:49:25.993Z,963.11
2018-10-11T21:51:52.324Z,963.06
2018-10-11T21:54:18.643Z,962.99
2018-10-11T21:56:44.973Z,963.02
2018-10-11T21:59:11.317Z,962.96
2018-10-11T22:01:37.626Z,962.99
2018-10-11T22:04:04.000Z,962.96
2018-10-11T22:06:30.314Z,962.96
2018-10-11T22:08:56.706Z,962.98
2018-10-11T22:11:23.017Z,962.97
2018-10-11T22:13:49.323Z,963.02
2018-10-11T22:16:15.663Z,963.02
2018-10-11T22:18:41.971Z,962.91
2018-10-11T22:21:08.268Z,962.97
2018-10-11T22:23:34.630Z,962.96
2018-10-11T22:26:00.967Z,963.01
2018-10-11T22:28:27.283Z,963.03
2018-10-11T22:30:53.637Z,963.04
2018-10-11T22:33:19.959Z,962.99
2018-10-11T22:35:46.265Z,963.06
2018-10-11T22:38:12.563Z,962.97
2018-10-11T22:40:38.892Z,962.98
2018-10-11T22:43:05.217Z,962.99
2018-10-11T22:45:31.520Z,962.98
2018-10-11T22:47:57.845Z,962.97
2018-10-11T22:50:24.233Z,963.02
2018-10-11T22:52:50.570Z,963.04
2018-10-11T22:55:16.873Z,963.04
2018-10-11T22:57:43.179Z,963.03
2018-10-11T23:00:09.482Z,963.05
2018-10-11T23:02:35.837Z,963.08
2018-10-11T23:05:02.151Z,963.06
2018-10-11T23:07:28.460Z,963.03
2018-10-11T23:09:54.837Z,963.01
2018-10-11T23:12:21.138Z,963.03
2018-10-11T23:14:47.519Z,962.99
2018-10-11T23:17:13.756Z,962.97
2018-10-11T23:19:40.091Z,962.96
2018-10-11T23:22:06.449Z,962.94
2018-10-11T23:24:32.786Z,962.91
2018-10-11T23:26:59.090Z,962.90
2018-10-11T23:29:25.415Z,962.89
2018-10-11T23:31:51.711Z,962.85
2018-10-11T23:34:18.046Z,962.89
2018-10-11T23:36:44.381Z,962.84
2018-10-11T23:39:10.703Z,962.90
2018-10-11T23:41:37.425Z,962.90
2018-10-11T23:44:03.752Z,962.91
2018-10-11T23:46:30.064Z,962.92
2018-10-11T23:48:56.397Z,962.89
2018-10-11T23:51:22.727Z,962.88
2018-10-11T23:53:49.084Z,962.93
2018-10-11T23:56:15.387Z,962.91
2018-10-11T23:58:41.715Z,962.88
